This is the latest recevied weather packets stored in our database for station/object KC1BRV. If no packets are shown the sender has not sent any weather packets the latest 10 day(s).
| Time | Temp. | Humidity | Pressure | Rain* | Wind** | Luminosity | Snow |
|---|---|---|---|---|---|---|---|
| 1777823484 | 9.44° C | 53% | 1007.8 hPa | 0 mm | - | 235 W/m² | - |
| 1777823181 | 10° C | 53% | 1007.9 hPa | 0 mm | - | 177 W/m² | - |
| 1777822879 | 10° C | 54% | 1007.9 hPa | 0 mm | - | 180 W/m² | - |
| 1777822576 | 10.56° C | 54% | 1007.7 hPa | 0 mm | - | 275 W/m² | - |
| 1777822273 | 9.44° C | 57% | 1007.7 hPa | 0 mm | - | 596 W/m² | - |
| 1777821971 | 8.89° C | 56% | 1007.9 hPa | 0 mm | - | 281 W/m² | - |
| 1777821669 | 9.44° C | 57% | 1007.7 hPa | 0 mm | - | 268 W/m² | - |
| 1777821367 | 9.44° C | 59% | 1007.6 hPa | 0 mm | - | 165 W/m² | - |
| 1777821063 | 9.44° C | 58% | 1007.7 hPa | 0 mm | - | 177 W/m² | - |
| 1777820759 | 9.44° C | 60% | 1007.6 hPa | 0 mm | - | 164 W/m² | - |
| 1777820455 | 9.44° C | 57% | 1007.6 hPa | 0 mm | - | 167 W/m² | - |
| 1777820153 | 10° C | 57% | 1007.4 hPa | 0 mm | - | 171 W/m² | - |
| 1777819850 | 10° C | 56% | 1007.4 hPa | 0 mm | - | 243 W/m² | - |
| 1777819548 | 10° C | 59% | 1007.5 hPa | 0 mm | - | 854 W/m² | - |
| 1777819245 | 10° C | 59% | 1007.5 hPa | 0 mm | - | 373 W/m² | - |
| 1777818942 | 10° C | 59% | 1007.5 hPa | 0 mm | - | 281 W/m² | - |
| 1777818638 | 9.44° C | 61% | 1007.6 hPa | 0 mm | - | 304 W/m² | - |
| 1777818336 | 8.89° C | 62% | 1007.5 hPa | 0 mm | - | 356 W/m² | - |
| 1777818032 | 8.89° C | 61% | 1007.6 hPa | 0 mm | - | 194 W/m² | - |
| 1777817729 | 8.33° C | 62% | 1007.7 hPa | 0 mm | - | 186 W/m² | - |
| 1777817426 | 8.33° C | 62% | 1007.7 hPa | 0 mm | - | 99 W/m² | - |
| 1777817122 | 8.89° C | 61% | 1007.5 hPa | 0 mm | - | 117 W/m² | - |
| 1777816820 | 8.89° C | 61% | 1007.6 hPa | 0 mm | - | 211 W/m² | - |
| 1777816517 | 8.89° C | 61% | 1007.6 hPa | 0 mm | - | 168 W/m² | - |
| 1777816214 | 9.44° C | 60% | 1007.5 hPa | 0 mm | - | 260 W/m² | - |
* Rain latest hour (hover to see other rain measurements)
** Current wind speed in m/s (hover to see current wind gust speed)